SUR4101 MPTO-SKRG
Flight info
| Callsign | SUR4101 |
|---|---|
| Flight time | 1h 7m |
| Altitude | 39000 |
| Route | KUBEK DCT LCE/N0375F230 B689 OPMEL OPMEL4A |
| Aircraft | B736/M-SDE2E3FGHIRWXY/LB1 |
Departure
| Time | 2026-05-07 18:38 |
|---|---|
| Airport | Tocumen International Airport (MPTO) |
Arrival
| Time | 2026-05-07 19:46 |
|---|---|
| Airport | Jose Maria Córdova International Airport (SKRG) |
| Time | Latitude | Longitude | Altitude | Speed | Heading |
|---|---|---|---|---|---|
| 2026-05-07 17:32 | 9.07062 | -79.38597 | 63 ft | 0 kts | 120° |
| 2026-05-07 18:24 | 9.07067 | -79.38605 | 63 ft | 2 kts | 121° |
| 2026-05-07 18:25 | 9.07075 | -79.38618 | 63 ft | 2 kts | 120° |
| 2026-05-07 18:25 | 9.07080 | -79.38628 | 63 ft | 0 kts | 120° |
| 2026-05-07 18:25 | 9.07085 | -79.38641 | 63 ft | 2 kts | 91° |
| 2026-05-07 18:25 | 9.07082 | -79.38656 | 63 ft | 2 kts | 63° |
| 2026-05-07 18:26 | 9.07073 | -79.38667 | 63 ft | 1 kts | 34° |
| 2026-05-07 18:26 | 9.07067 | -79.38670 | 63 ft | 1 kts | 25° |
| 2026-05-07 18:26 | 9.07065 | -79.38672 | 63 ft | 0 kts | 27° |
| 2026-05-07 18:30 | 9.07066 | -79.38671 | 63 ft | 0 kts | 27° |
| 2026-05-07 18:30 | 9.07075 | -79.38666 | 63 ft | 2 kts | 28° |
| 2026-05-07 18:30 | 9.07085 | -79.38662 | 63 ft | 1 kts | 28° |
| 2026-05-07 18:30 | 9.07096 | -79.38655 | 63 ft | 2 kts | 28° |
| 2026-05-07 18:31 | 9.07115 | -79.38645 | 63 ft | 3 kts | 28° |
| 2026-05-07 18:31 | 9.07138 | -79.38633 | 63 ft | 3 kts | 28° |
| 2026-05-07 18:31 | 9.07164 | -79.38620 | 63 ft | 4 kts | 28° |
| 2026-05-07 18:31 | 9.07190 | -79.38605 | 63 ft | 4 kts | 30° |
| 2026-05-07 18:32 | 9.07216 | -79.38589 | 63 ft | 4 kts | 32° |
| 2026-05-07 18:32 | 9.07243 | -79.38573 | 63 ft | 4 kts | 27° |
| 2026-05-07 18:32 | 9.07265 | -79.38561 | 64 ft | 2 kts | 27° |
| 2026-05-07 18:32 | 9.07280 | -79.38554 | 64 ft | 2 kts | 27° |
| 2026-05-07 18:33 | 9.07291 | -79.38547 | 65 ft | 1 kts | 29° |
| 2026-05-07 18:33 | 9.07303 | -79.38536 | 65 ft | 2 kts | 63° |
| 2026-05-07 18:33 | 9.07308 | -79.38496 | 66 ft | 7 kts | 100° |
| 2026-05-07 18:33 | 9.07286 | -79.38446 | 65 ft | 8 kts | 121° |
| 2026-05-07 18:34 | 9.07254 | -79.38393 | 64 ft | 9 kts | 122° |
| 2026-05-07 18:34 | 9.07219 | -79.38331 | 63 ft | 10 kts | 118° |
| 2026-05-07 18:34 | 9.07178 | -79.38255 | 60 ft | 13 kts | 118° |
| 2026-05-07 18:34 | 9.07128 | -79.38167 | 56 ft | 14 kts | 121° |
| 2026-05-07 18:35 | 9.07130 | -79.38106 | 55 ft | 10 kts | 48° |
| 2026-05-07 18:35 | 9.07189 | -79.38065 | 55 ft | 9 kts | 41° |
| 2026-05-07 18:35 | 9.07199 | -79.37999 | 54 ft | 9 kts | 111° |
| 2026-05-07 18:35 | 9.07196 | -79.37992 | 54 ft | 0 kts | 111° |
| 2026-05-07 18:36 | 9.07187 | -79.37972 | 53 ft | 5 kts | 116° |
| 2026-05-07 18:37 | 9.07162 | -79.37927 | 52 ft | 8 kts | 122° |
| 2026-05-07 18:37 | 9.07106 | -79.37928 | 51 ft | 5 kts | 208° |
| 2026-05-07 18:37 | 9.07105 | -79.37929 | 51 ft | 0 kts | 208° |
| 2026-05-07 18:37 | 9.07093 | -79.37936 | 51 ft | 12 kts | 208° |
| 2026-05-07 18:38 | 9.06749 | -79.38130 | 51 ft | 98 kts | 210° |
| 2026-05-07 18:38 | 9.05928 | -79.38595 | 113 ft | 162 kts | 210° |
| 2026-05-07 18:38 | 9.04854 | -79.39226 | 537 ft | 195 kts | 210° |
| 2026-05-07 18:38 | 9.03712 | -79.39940 | 1510 ft | 193 kts | 216° |
| 2026-05-07 18:39 | 9.02550 | -79.40754 | 2096 ft | 211 kts | 215° |
| 2026-05-07 18:39 | 9.01273 | -79.41548 | 2735 ft | 226 kts | 211° |
| 2026-05-07 18:39 | 8.99853 | -79.42336 | 3427 ft | 240 kts | 209° |
| 2026-05-07 18:39 | 8.98340 | -79.43149 | 4124 ft | 253 kts | 209° |
| 2026-05-07 18:40 | 8.96740 | -79.44009 | 4811 ft | 268 kts | 208° |
| 2026-05-07 18:40 | 8.95072 | -79.44910 | 5491 ft | 281 kts | 208° |
| 2026-05-07 18:40 | 8.93310 | -79.45867 | 6265 ft | 291 kts | 207° |
| 2026-05-07 18:40 | 8.91533 | -79.46835 | 7153 ft | 294 kts | 207° |
| 2026-05-07 18:41 | 8.89750 | -79.47809 | 8058 ft | 296 kts | 206° |
| 2026-05-07 18:41 | 8.87937 | -79.48798 | 8938 ft | 298 kts | 206° |
| 2026-05-07 18:41 | 8.86090 | -79.49804 | 9805 ft | 301 kts | 206° |
| 2026-05-07 18:41 | 8.84244 | -79.50807 | 10538 ft | 309 kts | 206° |
| 2026-05-07 18:42 | 8.82316 | -79.51857 | 11273 ft | 317 kts | 205° |
| 2026-05-07 18:42 | 8.80375 | -79.52917 | 12077 ft | 321 kts | 205° |
| 2026-05-07 18:42 | 8.78397 | -79.53999 | 12928 ft | 324 kts | 205° |
| 2026-05-07 18:42 | 8.76390 | -79.55090 | 13765 ft | 328 kts | 205° |
| 2026-05-07 18:43 | 8.74359 | -79.56197 | 14555 ft | 333 kts | 205° |
| 2026-05-07 18:43 | 8.72313 | -79.57315 | 15351 ft | 338 kts | 205° |
| 2026-05-07 18:43 | 8.70242 | -79.58447 | 16105 ft | 343 kts | 205° |
| 2026-05-07 18:43 | 8.68133 | -79.59597 | 16861 ft | 347 kts | 206° |
| 2026-05-07 18:44 | 8.65988 | -79.60770 | 17649 ft | 352 kts | 205° |
| 2026-05-07 18:44 | 8.63811 | -79.61960 | 18355 ft | 357 kts | 205° |
| 2026-05-07 18:44 | 8.61637 | -79.63148 | 19019 ft | 363 kts | 205° |
| 2026-05-07 18:44 | 8.59379 | -79.64381 | 19731 ft | 367 kts | 205° |
| 2026-05-07 18:45 | 8.57132 | -79.65608 | 20372 ft | 372 kts | 205° |
| 2026-05-07 18:45 | 8.54850 | -79.66854 | 21054 ft | 376 kts | 205° |
| 2026-05-07 18:45 | 8.52520 | -79.68127 | 21676 ft | 380 kts | 205° |
| 2026-05-07 18:45 | 8.50202 | -79.69394 | 22306 ft | 383 kts | 205° |
| 2026-05-07 18:46 | 8.47823 | -79.70694 | 22954 ft | 387 kts | 205° |
| 2026-05-07 18:46 | 8.45460 | -79.71986 | 23581 ft | 390 kts | 206° |
| 2026-05-07 18:46 | 8.42978 | -79.73100 | 24187 ft | 388 kts | 193° |
| 2026-05-07 18:46 | 8.40306 | -79.73470 | 24774 ft | 386 kts | 178° |
| 2026-05-07 18:47 | 8.40294 | -79.73470 | 24777 ft | 386 kts | 178° |
| 2026-05-07 18:47 | 8.38459 | -79.73423 | 25175 ft | 386 kts | 173° |
| 2026-05-07 18:47 | 8.35768 | -79.73204 | 25736 ft | 389 kts | 171° |
| 2026-05-07 18:48 | 8.33045 | -79.73046 | 26268 ft | 394 kts | 179° |
| 2026-05-07 18:48 | 8.30334 | -79.73350 | 26822 ft | 400 kts | 189° |
| 2026-05-07 18:48 | 8.27654 | -79.74178 | 27359 ft | 404 kts | 201° |
| 2026-05-07 18:48 | 8.25143 | -79.75506 | 27859 ft | 409 kts | 212° |
| 2026-05-07 18:49 | 8.22890 | -79.77300 | 28365 ft | 412 kts | 223° |
| 2026-05-07 18:49 | 8.20985 | -79.79469 | 28902 ft | 414 kts | 232° |
| 2026-05-07 18:49 | 8.19254 | -79.81786 | 29411 ft | 416 kts | 232° |
| 2026-05-07 18:49 | 8.17225 | -79.83845 | 29810 ft | 420 kts | 216° |
| 2026-05-07 18:50 | 8.14634 | -79.85217 | 30304 ft | 420 kts | 198° |
| 2026-05-07 18:50 | 8.11752 | -79.85740 | 30743 ft | 422 kts | 182° |
| 2026-05-07 18:50 | 8.08821 | -79.85639 | 31116 ft | 426 kts | 174° |
| 2026-05-07 18:50 | 8.05846 | -79.85292 | 31551 ft | 428 kts | 172° |
| 2026-05-07 18:51 | 8.02887 | -79.84862 | 32140 ft | 426 kts | 171° |
| 2026-05-07 18:51 | 8.00006 | -79.84364 | 32715 ft | 423 kts | 166° |
| 2026-05-07 18:51 | 7.97275 | -79.83199 | 32855 ft | 427 kts | 145° |
| 2026-05-07 18:51 | 7.95145 | -79.81132 | 32864 ft | 424 kts | 124° |
| 2026-05-07 18:52 | 7.93848 | -79.78520 | 32866 ft | 420 kts | 107° |
| 2026-05-07 18:52 | 7.92724 | -79.72768 | 32863 ft | 419 kts | 99° |
| 2026-05-07 18:53 | 7.91631 | -79.67021 | 32864 ft | 418 kts | 100° |
| 2026-05-07 18:53 | 7.90471 | -79.61258 | 32863 ft | 418 kts | 100° |
| 2026-05-07 18:54 | 7.89308 | -79.55531 | 32863 ft | 418 kts | 100° |
| 2026-05-07 18:54 | 7.88150 | -79.49815 | 32863 ft | 418 kts | 100° |
| 2026-05-07 18:55 | 7.86987 | -79.44067 | 32864 ft | 419 kts | 100° |
| 2026-05-07 18:55 | 7.85820 | -79.38304 | 32864 ft | 419 kts | 100° |
| 2026-05-07 18:56 | 7.84656 | -79.32563 | 32863 ft | 418 kts | 100° |
| 2026-05-07 18:56 | 7.83502 | -79.26870 | 32864 ft | 417 kts | 100° |
| 2026-05-07 18:57 | 7.82335 | -79.21121 | 32863 ft | 418 kts | 100° |
| 2026-05-07 18:57 | 7.81172 | -79.15384 | 32863 ft | 418 kts | 100° |
| 2026-05-07 18:58 | 7.80015 | -79.09683 | 32864 ft | 419 kts | 100° |
| 2026-05-07 18:58 | 7.78844 | -79.03914 | 32863 ft | 419 kts | 100° |
| 2026-05-07 18:59 | 7.77680 | -78.98187 | 32863 ft | 419 kts | 100° |
| 2026-05-07 18:59 | 7.76508 | -78.92428 | 32863 ft | 417 kts | 100° |
| 2026-05-07 19:00 | 7.75347 | -78.86736 | 32863 ft | 417 kts | 100° |
| 2026-05-07 19:00 | 7.74175 | -78.80988 | 32864 ft | 418 kts | 100° |
| 2026-05-07 19:01 | 7.73007 | -78.75258 | 32861 ft | 417 kts | 100° |
| 2026-05-07 19:01 | 7.71844 | -78.69556 | 32859 ft | 419 kts | 100° |
| 2026-05-07 19:02 | 7.70667 | -78.63792 | 32853 ft | 418 kts | 100° |
| 2026-05-07 19:02 | 7.69500 | -78.58080 | 32850 ft | 418 kts | 100° |
| 2026-05-07 19:03 | 7.68332 | -78.52373 | 32848 ft | 418 kts | 100° |
| 2026-05-07 19:03 | 7.67158 | -78.46635 | 32856 ft | 417 kts | 100° |
| 2026-05-07 19:04 | 7.65989 | -78.40930 | 32867 ft | 418 kts | 100° |
| 2026-05-07 19:04 | 7.64814 | -78.35194 | 32877 ft | 417 kts | 100° |
| 2026-05-07 19:05 | 7.63636 | -78.29446 | 32886 ft | 419 kts | 101° |
| 2026-05-07 19:05 | 7.62463 | -78.23730 | 32894 ft | 418 kts | 101° |
| 2026-05-07 19:06 | 7.61287 | -78.17999 | 32886 ft | 417 kts | 101° |
| 2026-05-07 19:06 | 7.59528 | -78.09446 | 32875 ft | 417 kts | 101° |
| 2026-05-07 19:07 | 7.58347 | -78.03716 | 32870 ft | 417 kts | 101° |
| 2026-05-07 19:07 | 7.57167 | -77.97983 | 32865 ft | 417 kts | 101° |
| 2026-05-07 19:08 | 7.55993 | -77.92270 | 32875 ft | 416 kts | 101° |
| 2026-05-07 19:08 | 7.54823 | -77.86574 | 32884 ft | 417 kts | 101° |
| 2026-05-07 19:09 | 7.53648 | -77.80885 | 32889 ft | 418 kts | 101° |
| 2026-05-07 19:09 | 7.52464 | -77.75163 | 32899 ft | 417 kts | 101° |
| 2026-05-07 19:10 | 7.51276 | -77.69415 | 32900 ft | 418 kts | 101° |
| 2026-05-07 19:10 | 7.50095 | -77.63708 | 32896 ft | 418 kts | 101° |
| 2026-05-07 19:11 | 7.48907 | -77.57973 | 32896 ft | 418 kts | 101° |
| 2026-05-07 19:11 | 7.47730 | -77.52287 | 32895 ft | 418 kts | 101° |
| 2026-05-07 19:12 | 7.46540 | -77.46541 | 32890 ft | 417 kts | 101° |
| 2026-05-07 19:12 | 7.45361 | -77.40847 | 32881 ft | 418 kts | 101° |
| 2026-05-07 19:13 | 7.44178 | -77.35146 | 32868 ft | 417 kts | 101° |
| 2026-05-07 19:13 | 7.42986 | -77.29408 | 32857 ft | 418 kts | 101° |
| 2026-05-07 19:14 | 7.41805 | -77.23729 | 32843 ft | 417 kts | 101° |
| 2026-05-07 19:14 | 7.40616 | -77.18007 | 32834 ft | 419 kts | 101° |
| 2026-05-07 19:15 | 7.39421 | -77.12262 | 32834 ft | 418 kts | 101° |
| 2026-05-07 19:15 | 7.38224 | -77.06513 | 32831 ft | 419 kts | 101° |
| 2026-05-07 19:16 | 7.37031 | -77.00784 | 32831 ft | 418 kts | 101° |
| 2026-05-07 19:16 | 7.35839 | -76.95059 | 32834 ft | 418 kts | 101° |
| 2026-05-07 19:17 | 7.34645 | -76.89329 | 32844 ft | 418 kts | 101° |
| 2026-05-07 19:17 | 7.33454 | -76.83617 | 32865 ft | 418 kts | 101° |
| 2026-05-07 19:18 | 7.32252 | -76.77870 | 32862 ft | 419 kts | 101° |
| 2026-05-07 19:18 | 7.31053 | -76.72136 | 32879 ft | 419 kts | 101° |
| 2026-05-07 19:19 | 7.29850 | -76.66373 | 32877 ft | 419 kts | 101° |
| 2026-05-07 19:19 | 7.28651 | -76.60642 | 32888 ft | 418 kts | 101° |
| 2026-05-07 19:20 | 7.27451 | -76.54911 | 32899 ft | 419 kts | 101° |
| 2026-05-07 19:20 | 7.26250 | -76.49171 | 32903 ft | 419 kts | 101° |
| 2026-05-07 19:21 | 7.25052 | -76.43456 | 32988 ft | 419 kts | 101° |
| 2026-05-07 19:21 | 7.23850 | -76.37728 | 33077 ft | 419 kts | 101° |
| 2026-05-07 19:22 | 7.22299 | -76.32050 | 33150 ft | 420 kts | 113° |
| 2026-05-07 19:22 | 7.20826 | -76.29548 | 33186 ft | 422 kts | 128° |
| 2026-05-07 19:22 | 7.18785 | -76.27427 | 33204 ft | 421 kts | 140° |
| 2026-05-07 19:23 | 7.14052 | -76.23907 | 33202 ft | 422 kts | 145° |
| 2026-05-07 19:23 | 7.09253 | -76.20538 | 33202 ft | 421 kts | 145° |
| 2026-05-07 19:24 | 7.04454 | -76.17165 | 33198 ft | 421 kts | 145° |
| 2026-05-07 19:24 | 6.99632 | -76.13764 | 33199 ft | 420 kts | 145° |
| 2026-05-07 19:25 | 6.94864 | -76.10390 | 33220 ft | 420 kts | 145° |
| 2026-05-07 19:25 | 6.90076 | -76.06995 | 33258 ft | 420 kts | 144° |
| 2026-05-07 19:26 | 6.85314 | -76.03610 | 33285 ft | 419 kts | 145° |
| 2026-05-07 19:26 | 6.80511 | -76.00198 | 33309 ft | 420 kts | 145° |
| 2026-05-07 19:27 | 6.75753 | -75.96785 | 33150 ft | 416 kts | 142° |
| 2026-05-07 19:27 | 6.73581 | -75.94913 | 32760 ft | 411 kts | 136° |
| 2026-05-07 19:27 | 6.71589 | -75.92844 | 32253 ft | 408 kts | 132° |
| 2026-05-07 19:28 | 6.69736 | -75.90707 | 31656 ft | 409 kts | 130° |
| 2026-05-07 19:28 | 6.67907 | -75.88499 | 31018 ft | 411 kts | 129° |
| 2026-05-07 19:28 | 6.66096 | -75.86279 | 30337 ft | 413 kts | 129° |
| 2026-05-07 19:28 | 6.64281 | -75.84049 | 29627 ft | 414 kts | 129° |
| 2026-05-07 19:29 | 6.62456 | -75.81811 | 28905 ft | 416 kts | 129° |
| 2026-05-07 19:29 | 6.60616 | -75.79559 | 28251 ft | 415 kts | 129° |
| 2026-05-07 19:29 | 6.58785 | -75.77325 | 27725 ft | 411 kts | 129° |
| 2026-05-07 19:29 | 6.56970 | -75.75115 | 27159 ft | 408 kts | 129° |
| 2026-05-07 19:30 | 6.55168 | -75.72926 | 26606 ft | 405 kts | 129° |
| 2026-05-07 19:30 | 6.53371 | -75.70744 | 26051 ft | 402 kts | 129° |
| 2026-05-07 19:30 | 6.51609 | -75.68607 | 25511 ft | 399 kts | 129° |
| 2026-05-07 19:30 | 6.49836 | -75.66456 | 24969 ft | 396 kts | 128° |
| 2026-05-07 19:31 | 6.48079 | -75.64325 | 24437 ft | 393 kts | 128° |
| 2026-05-07 19:31 | 6.46352 | -75.62231 | 23922 ft | 390 kts | 128° |
| 2026-05-07 19:31 | 6.44623 | -75.60134 | 23418 ft | 386 kts | 128° |
| 2026-05-07 19:31 | 6.42860 | -75.58112 | 22914 ft | 383 kts | 132° |
| 2026-05-07 19:32 | 6.40874 | -75.56347 | 22401 ft | 382 kts | 143° |
| 2026-05-07 19:32 | 6.38524 | -75.55112 | 21924 ft | 381 kts | 157° |
| 2026-05-07 19:32 | 6.35998 | -75.54402 | 21435 ft | 380 kts | 167° |
| 2026-05-07 19:32 | 6.33362 | -75.54038 | 20919 ft | 379 kts | 173° |
| 2026-05-07 19:33 | 6.30749 | -75.53889 | 20408 ft | 378 kts | 176° |
| 2026-05-07 19:33 | 6.28103 | -75.53835 | 19889 ft | 376 kts | 177° |
| 2026-05-07 19:33 | 6.25511 | -75.53805 | 19376 ft | 373 kts | 177° |
| 2026-05-07 19:33 | 6.22894 | -75.53783 | 18900 ft | 369 kts | 177° |
| 2026-05-07 19:34 | 6.20380 | -75.53764 | 18650 ft | 359 kts | 177° |
| 2026-05-07 19:34 | 6.17869 | -75.53738 | 18173 ft | 356 kts | 176° |
| 2026-05-07 19:34 | 6.15408 | -75.53706 | 17650 ft | 355 kts | 176° |
| 2026-05-07 19:34 | 6.12918 | -75.53665 | 17153 ft | 353 kts | 176° |
| 2026-05-07 19:35 | 6.10481 | -75.53645 | 16715 ft | 350 kts | 177° |
| 2026-05-07 19:35 | 6.08032 | -75.53661 | 16240 ft | 348 kts | 178° |
| 2026-05-07 19:35 | 6.05623 | -75.53694 | 15792 ft | 344 kts | 178° |
| 2026-05-07 19:35 | 6.03236 | -75.53730 | 15606 ft | 332 kts | 178° |
| 2026-05-07 19:36 | 6.00968 | -75.53762 | 15487 ft | 319 kts | 178° |
| 2026-05-07 19:36 | 5.98766 | -75.53791 | 15366 ft | 306 kts | 177° |
| 2026-05-07 19:36 | 5.96676 | -75.53812 | 15268 ft | 294 kts | 177° |
| 2026-05-07 19:36 | 5.94641 | -75.53831 | 15200 ft | 283 kts | 176° |
| 2026-05-07 19:37 | 5.92704 | -75.53845 | 15142 ft | 272 kts | 175° |
| 2026-05-07 19:37 | 5.90860 | -75.53641 | 15029 ft | 259 kts | 161° |
| 2026-05-07 19:37 | 5.89323 | -75.52854 | 14851 ft | 245 kts | 135° |
| 2026-05-07 19:37 | 5.88258 | -75.51523 | 14525 ft | 242 kts | 116° |
| 2026-05-07 19:38 | 5.87601 | -75.49977 | 14045 ft | 246 kts | 104° |
| 2026-05-07 19:38 | 5.87396 | -75.48267 | 13568 ft | 249 kts | 89° |
| 2026-05-07 19:38 | 5.87467 | -75.46563 | 13248 ft | 235 kts | 86° |
| 2026-05-07 19:38 | 5.87661 | -75.45030 | 13099 ft | 213 kts | 77° |
| 2026-05-07 19:39 | 5.88216 | -75.43733 | 12980 ft | 194 kts | 54° |
| 2026-05-07 19:39 | 5.89203 | -75.42866 | 12776 ft | 184 kts | 35° |
| 2026-05-07 19:39 | 5.90372 | -75.42312 | 12372 ft | 187 kts | 20° |
| 2026-05-07 19:39 | 5.91667 | -75.42164 | 11956 ft | 191 kts | 2° |
| 2026-05-07 19:40 | 5.93005 | -75.42226 | 11496 ft | 192 kts | 1° |
| 2026-05-07 19:40 | 5.94345 | -75.42249 | 11043 ft | 190 kts | 4° |
| 2026-05-07 19:40 | 5.95647 | -75.42238 | 10676 ft | 184 kts | 3° |
| 2026-05-07 19:40 | 5.96911 | -75.42242 | 10377 ft | 175 kts | 2° |
| 2026-05-07 19:41 | 5.98093 | -75.42261 | 10148 ft | 163 kts | 2° |
| 2026-05-07 19:41 | 5.99220 | -75.42272 | 9971 ft | 160 kts | 4° |
| 2026-05-07 19:41 | 6.00345 | -75.42248 | 9785 ft | 159 kts | 4° |
| 2026-05-07 19:41 | 6.01451 | -75.42259 | 9630 ft | 160 kts | 1° |
| 2026-05-07 19:42 | 6.02575 | -75.42275 | 9380 ft | 160 kts | 3° |
| 2026-05-07 19:42 | 6.03691 | -75.42257 | 9154 ft | 158 kts | 3° |
| 2026-05-07 19:42 | 6.04790 | -75.42252 | 8963 ft | 159 kts | 1° |
| 2026-05-07 19:42 | 6.05924 | -75.42274 | 8749 ft | 160 kts | 360° |
| 2026-05-07 19:43 | 6.07027 | -75.42306 | 8541 ft | 155 kts | 1° |
| 2026-05-07 19:43 | 6.08117 | -75.42287 | 8332 ft | 158 kts | 4° |
| 2026-05-07 19:43 | 6.09233 | -75.42271 | 8150 ft | 158 kts | 1° |
| 2026-05-07 19:43 | 6.10317 | -75.42295 | 7906 ft | 153 kts | 0° |
| 2026-05-07 19:44 | 6.11373 | -75.42281 | 7684 ft | 147 kts | 0° |
| 2026-05-07 19:44 | 6.12369 | -75.42289 | 7546 ft | 141 kts | 2° |
| 2026-05-07 19:44 | 6.13375 | -75.42281 | 7404 ft | 146 kts | 360° |
| 2026-05-07 19:44 | 6.14428 | -75.42303 | 7220 ft | 151 kts | 2° |
| 2026-05-07 19:45 | 6.15480 | -75.42300 | 6980 ft | 148 kts | 360° |
| 2026-05-07 19:45 | 6.16448 | -75.42311 | 6964 ft | 119 kts | 357° |
| 2026-05-07 19:45 | 6.17122 | -75.42309 | 6980 ft | 76 kts | 357° |
| 2026-05-07 19:45 | 6.17546 | -75.42318 | 6987 ft | 52 kts | 1° |
| 2026-05-07 19:46 | 6.17832 | -75.42313 | 6992 ft | 31 kts | 358° |
| 2026-05-07 19:46 | 6.17987 | -75.42333 | 6993 ft | 12 kts | 334° |
| 2026-05-07 19:46 | 6.18021 | -75.42370 | 6995 ft | 2 kts | 287° |
| 2026-05-07 19:46 | 6.18023 | -75.42386 | 6995 ft | 4 kts | 275° |
| 2026-05-07 19:47 | 6.18024 | -75.42412 | 6996 ft | 2 kts | 270° |
| 2026-05-07 19:47 | 6.18024 | -75.42423 | 6997 ft | 2 kts | 270° |
| 2026-05-07 19:47 | 6.18023 | -75.42454 | 6998 ft | 3 kts | 247° |
| 2026-05-07 19:47 | 6.18009 | -75.42472 | 6998 ft | 3 kts | 231° |
| 2026-05-07 19:48 | 6.17958 | -75.42494 | 6998 ft | 11 kts | 180° |
| 2026-05-07 19:48 | 6.17874 | -75.42491 | 6997 ft | 12 kts | 178° |
| 2026-05-07 19:48 | 6.17813 | -75.42489 | 6995 ft | 0 kts | 178° |
| 2026-05-07 19:48 | 6.17799 | -75.42488 | 6995 ft | 3 kts | 178° |
| 2026-05-07 19:49 | 6.17772 | -75.42487 | 6995 ft | 4 kts | 178° |
| 2026-05-07 19:49 | 6.17736 | -75.42486 | 6994 ft | 5 kts | 179° |
| 2026-05-07 19:49 | 6.17694 | -75.42485 | 6993 ft | 6 kts | 179° |
| 2026-05-07 19:49 | 6.17648 | -75.42485 | 6992 ft | 6 kts | 180° |
| 2026-05-07 19:50 | 6.17598 | -75.42486 | 6992 ft | 7 kts | 181° |
| 2026-05-07 19:50 | 6.17546 | -75.42497 | 6991 ft | 7 kts | 204° |
| 2026-05-07 19:50 | 6.17504 | -75.42526 | 6991 ft | 6 kts | 220° |
| 2026-05-07 19:50 | 6.17476 | -75.42551 | 6992 ft | 4 kts | 217° |
| 2026-05-07 19:51 | 6.17449 | -75.42569 | 6993 ft | 5 kts | 214° |
| 2026-05-07 19:51 | 6.17417 | -75.42590 | 6993 ft | 5 kts | 214° |
| 2026-05-07 19:51 | 6.17375 | -75.42629 | 6993 ft | 10 kts | 243° |
| 2026-05-07 19:51 | 6.17382 | -75.42697 | 6995 ft | 7 kts | 273° |
| 2026-05-07 19:52 | 6.17354 | -75.42733 | 6995 ft | 5 kts | 213° |
| 2026-05-07 19:52 | 6.17323 | -75.42752 | 6995 ft | 4 kts | 212° |
| 2026-05-07 19:52 | 6.17302 | -75.42765 | 6996 ft | 2 kts | 210° |
| 2026-05-07 19:52 | 6.17294 | -75.42770 | 6996 ft | 0 kts | 210° |